createdAt,value
2022-10-22T00:00:26.500Z,8
2022-10-22T00:10:27.636Z,10
2022-10-22T00:20:28.757Z,11
2022-10-22T00:30:29.902Z,9
2022-10-22T00:40:31.310Z,7
2022-10-22T00:50:32.445Z,7
2022-10-22T01:00:33.643Z,9
2022-10-22T01:10:34.840Z,7
2022-10-22T01:20:35.947Z,10
2022-10-22T01:30:37.102Z,9
2022-10-22T01:40:38.490Z,6
2022-10-22T01:50:39.620Z,2
2022-10-22T02:00:41.028Z,5
2022-10-22T02:10:42.264Z,6
2022-10-22T02:20:43.403Z,5
2022-10-22T02:30:44.538Z,4
2022-10-22T02:40:45.705Z,4
2022-10-22T02:50:46.946Z,5
2022-10-22T03:00:48.105Z,7
2022-10-22T03:10:49.364Z,5
2022-10-22T03:20:50.826Z,3
2022-10-22T03:30:52.025Z,4
2022-10-22T03:40:53.133Z,6
2022-10-22T03:50:54.243Z,7
2022-10-22T04:00:55.371Z,8
2022-10-22T04:10:56.503Z,6
2022-10-22T04:20:57.607Z,9
2022-10-22T04:30:58.784Z,10
2022-10-22T04:40:59.913Z,8
2022-10-22T04:51:01.453Z,5
2022-10-22T05:01:03.308Z,6
2022-10-22T05:11:05.066Z,6
2022-10-22T05:21:06.769Z,6
2022-10-22T05:31:08.541Z,6
2022-10-22T05:41:09.979Z,17
2022-10-22T05:51:11.535Z,9
2022-10-22T06:01:12.709Z,10
2022-10-22T06:11:13.862Z,7
2022-10-22T06:21:15.435Z,0
2022-10-22T06:31:16.602Z,10
2022-10-22T06:41:17.729Z,8
2022-10-22T06:51:18.847Z,4
2022-10-22T07:01:20.111Z,5
2022-10-22T07:11:21.564Z,5
2022-10-22T07:21:22.724Z,6
2022-10-22T07:31:23.974Z,3
2022-10-22T07:41:25.119Z,3
2022-10-22T07:51:26.259Z,1
2022-10-22T08:01:27.449Z,1
2022-10-22T08:11:28.662Z,5
2022-10-22T08:21:29.783Z,3
2022-10-22T08:31:31.134Z,4
2022-10-22T08:41:32.315Z,5
2022-10-22T08:51:33.456Z,2
2022-10-22T09:01:34.573Z,5
2022-10-22T09:11:35.665Z,3
2022-10-22T09:21:37.118Z,3
2022-10-22T09:31:38.304Z,4
2022-10-22T09:41:39.456Z,8
2022-10-22T09:51:40.825Z,4
2022-10-22T10:01:41.997Z,3
2022-10-22T10:11:43.121Z,4
2022-10-22T10:21:44.260Z,4
2022-10-22T10:31:45.457Z,1
2022-10-22T10:41:46.576Z,2
2022-10-22T10:51:47.706Z,6
2022-10-22T11:01:48.968Z,3
2022-10-22T11:11:50.438Z,10
2022-10-22T11:21:51.643Z,4
2022-10-22T11:31:52.832Z,4
2022-10-22T11:41:53.968Z,5
2022-10-22T11:51:55.210Z,4
2022-10-22T12:01:56.350Z,6
2022-10-22T12:11:57.490Z,5
2022-10-22T12:21:58.630Z,3
2022-10-22T12:31:59.765Z,5
2022-10-22T12:42:01.363Z,5
2022-10-22T12:52:03.039Z,4
2022-10-22T13:02:07.842Z,4
2022-10-22T13:12:12.180Z,4
2022-10-22T13:22:13.348Z,3
2022-10-22T13:32:14.483Z,3
2022-10-22T13:42:15.651Z,7
2022-10-22T13:52:16.895Z,4
2022-10-22T14:02:18.019Z,6
2022-10-22T14:12:19.203Z,6
2022-10-22T14:22:20.567Z,7
2022-10-22T14:32:21.704Z,8
2022-10-22T14:42:22.923Z,6
2022-10-22T14:52:24.071Z,6
2022-10-22T15:02:25.271Z,5
2022-10-22T15:12:26.413Z,2
2022-10-22T15:22:27.567Z,4
2022-10-22T15:32:28.691Z,3
2022-10-22T15:42:29.967Z,4
2022-10-22T15:52:31.334Z,4
2022-10-22T16:02:32.531Z,3
2022-10-22T16:12:33.655Z,3
2022-10-22T16:22:34.788Z,2
2022-10-22T16:32:36.042Z,2
2022-10-22T16:42:37.230Z,3
2022-10-22T16:52:38.377Z,3
2022-10-22T17:02:39.954Z,2
2022-10-22T17:12:41.701Z,2
2022-10-22T17:22:43.425Z,7
2022-10-22T17:32:44.862Z,6
2022-10-22T17:42:45.977Z,5
2022-10-22T17:52:47.105Z,10
2022-10-22T18:02:48.196Z,5
2022-10-22T18:12:49.331Z,4
2022-10-22T18:22:50.705Z,6
2022-10-22T18:32:51.848Z,4
2022-10-22T18:42:52.978Z,4
2022-10-22T18:52:54.153Z,7
2022-10-22T19:02:55.294Z,10
2022-10-22T19:12:56.444Z,11
2022-10-22T19:22:57.581Z,8
2022-10-22T19:32:58.710Z,10
2022-10-22T19:42:59.824Z,13
2022-10-22T19:53:01.245Z,9
2022-10-22T20:03:02.968Z,9
2022-10-22T20:13:04.637Z,18
2022-10-22T20:23:06.315Z,15
2022-10-22T20:33:08.017Z,12
2022-10-22T20:43:12.315Z,27
2022-10-22T20:53:16.850Z,22
2022-10-22T21:03:18.159Z,8
2022-10-22T21:13:19.286Z,18
2022-10-22T21:23:20.660Z,14
2022-10-22T21:33:21.877Z,12
2022-10-22T21:43:23.003Z,18
2022-10-22T21:53:24.178Z,15
2022-10-22T22:03:25.379Z,15
2022-10-22T22:13:26.537Z,14
2022-10-22T22:23:27.679Z,17
2022-10-22T22:33:29.004Z,12
2022-10-22T22:43:30.236Z,11
2022-10-22T22:53:31.543Z,11
2022-10-22T23:03:32.733Z,13
2022-10-22T23:13:33.911Z,11
2022-10-22T23:23:35.017Z,10
2022-10-22T23:33:36.141Z,11
2022-10-22T23:43:37.594Z,13
2022-10-22T23:53:38.811Z,13
